createdAt,value
2022-12-29T00:01:11.720Z,1.40
2022-12-29T00:03:42.335Z,1.40
2022-12-29T00:06:10.931Z,1.50
2022-12-29T00:08:43.426Z,1.40
2022-12-29T00:11:14.328Z,1.35
2022-12-29T00:14:00.469Z,1.60
2022-12-29T00:16:29.805Z,1.55
2022-12-29T00:18:58.192Z,1.60
2022-12-29T00:21:45.262Z,1.50
2022-12-29T00:24:35.129Z,1.77
2022-12-29T00:27:30.889Z,1.42
2022-12-29T00:30:17.379Z,1.45
2022-12-29T00:33:03.834Z,1.50
2022-12-29T00:35:36.144Z,1.50
2022-12-29T00:38:25.231Z,1.50
2022-12-29T00:41:12.442Z,1.67
2022-12-29T00:43:58.417Z,1.40
2022-12-29T00:46:26.789Z,1.50
2022-12-29T00:49:12.999Z,1.40
2022-12-29T00:51:41.317Z,1.40
2022-12-29T00:54:09.769Z,1.45
2022-12-29T00:56:39.491Z,1.60
2022-12-29T00:59:10.112Z,1.70
2022-12-29T01:01:39.828Z,1.48
2022-12-29T01:04:09.276Z,1.50
2022-12-29T01:06:39.256Z,1.40
2022-12-29T01:09:26.744Z,1.45
2022-12-29T01:11:56.845Z,1.40
2022-12-29T01:14:25.344Z,1.40
2022-12-29T01:16:54.213Z,1.23
2022-12-29T01:19:23.141Z,1.30
2022-12-29T01:21:51.978Z,1.10
2022-12-29T01:24:22.351Z,1.30
2022-12-29T01:26:51.026Z,1.08
2022-12-29T01:29:20.729Z,1.17
2022-12-29T01:31:50.582Z,1.15
2022-12-29T01:34:19.329Z,1.10
2022-12-29T01:36:47.694Z,1.02
2022-12-29T01:39:16.098Z,0.90
2022-12-29T01:41:44.739Z,0.90
2022-12-29T01:44:49.645Z,1.08
2022-12-29T01:47:27.391Z,0.85
2022-12-29T01:49:57.892Z,0.80
2022-12-29T01:52:30.180Z,0.70
2022-12-29T01:55:00.109Z,0.80
2022-12-29T01:57:33.533Z,0.80
2022-12-29T02:00:08.208Z,0.70
2022-12-29T02:02:45.154Z,0.90
2022-12-29T02:05:18.320Z,0.88
2022-12-29T02:07:48.054Z,0.80
2022-12-29T02:10:17.206Z,0.80
2022-12-29T02:12:47.345Z,0.70
2022-12-29T02:15:18.127Z,0.88
2022-12-29T02:18:09.595Z,0.90
2022-12-29T02:21:13.586Z,0.70
2022-12-29T02:24:15.196Z,0.88
2022-12-29T02:26:59.145Z,0.80
2022-12-29T02:30:14.365Z,0.95
2022-12-29T02:32:53.984Z,1.10
2022-12-29T02:35:32.781Z,0.93
2022-12-29T02:38:12.534Z,1.08
2022-12-29T02:40:45.368Z,0.90
2022-12-29T02:43:23.609Z,0.90
2022-12-29T02:45:57.242Z,0.90
2022-12-29T02:48:32.791Z,1.00
2022-12-29T02:51:05.487Z,1.00
2022-12-29T02:53:53.949Z,1.00
2022-12-29T02:56:22.837Z,1.00
2022-12-29T02:58:51.384Z,1.15
2022-12-29T03:01:30.347Z,1.17
2022-12-29T03:04:27.803Z,1.20
2022-12-29T03:07:06.861Z,1.10
2022-12-29T03:09:44.923Z,1.00
2022-12-29T03:12:19.951Z,1.23
2022-12-29T03:15:20.118Z,1.20
2022-12-29T03:17:54.586Z,1.20
2022-12-29T03:20:28.892Z,1.20
2022-12-29T03:23:02.510Z,1.50
2022-12-29T03:25:36.785Z,1.70
2022-12-29T03:28:12.696Z,1.40
2022-12-29T03:30:47.962Z,1.20
2022-12-29T03:33:21.252Z,1.02
2022-12-29T03:35:54.578Z,1.00
2022-12-29T03:38:27.455Z,1.00
2022-12-29T03:41:00.581Z,0.88
2022-12-29T03:43:31.258Z,0.98
2022-12-29T03:45:59.755Z,0.80
2022-12-29T03:48:28.205Z,0.90
2022-12-29T03:50:59.255Z,0.90
2022-12-29T03:53:27.587Z,0.85
2022-12-29T03:55:55.922Z,0.90
2022-12-29T03:58:24.965Z,0.90
2022-12-29T04:01:02.617Z,0.80
2022-12-29T04:03:33.768Z,0.80
2022-12-29T04:06:04.528Z,0.85
2022-12-29T04:08:40.783Z,0.80
2022-12-29T04:11:09.184Z,0.80
2022-12-29T04:13:38.430Z,0.77
2022-12-29T04:16:07.205Z,0.90
2022-12-29T04:18:36.136Z,0.90
2022-12-29T04:21:06.443Z,0.70
2022-12-29T04:23:40.390Z,0.80
2022-12-29T04:26:11.057Z,0.77
2022-12-29T04:29:14.852Z,0.77
2022-12-29T04:32:01.937Z,0.90
2022-12-29T04:34:32.228Z,0.90
2022-12-29T04:37:01.989Z,0.80
2022-12-29T04:39:30.854Z,0.80
2022-12-29T04:41:59.268Z,0.90
2022-12-29T04:44:27.874Z,0.80
2022-12-29T04:47:12.735Z,0.80
2022-12-29T04:50:07.955Z,0.80
2022-12-29T04:52:47.061Z,0.82
2022-12-29T04:55:16.525Z,0.80
2022-12-29T04:57:46.900Z,0.82
2022-12-29T05:00:19.924Z,1.00
2022-12-29T05:02:49.244Z,0.95
2022-12-29T05:05:18.701Z,0.90
2022-12-29T05:07:51.981Z,0.80
2022-12-29T05:10:20.445Z,0.90
2022-12-29T05:12:50.781Z,0.90
2022-12-29T05:15:20.060Z,0.90
2022-12-29T05:17:48.470Z,0.90
2022-12-29T05:20:18.177Z,1.00
2022-12-29T05:22:46.702Z,0.90
2022-12-29T05:25:17.926Z,0.90
2022-12-29T05:27:55.151Z,1.00
2022-12-29T05:30:42.904Z,1.00
2022-12-29T05:33:12.538Z,1.00
2022-12-29T05:35:41.864Z,1.15
2022-12-29T05:38:10.545Z,1.10
2022-12-29T05:40:41.141Z,0.88
2022-12-29T05:43:21.034Z,0.90
2022-12-29T05:46:07.782Z,0.80
2022-12-29T05:48:49.036Z,0.90
2022-12-29T05:51:27.883Z,0.77
2022-12-29T05:53:56.353Z,1.00
2022-12-29T05:56:26.569Z,1.00
2022-12-29T05:58:59.175Z,0.90
2022-12-29T06:01:27.957Z,0.90
2022-12-29T06:03:56.513Z,1.00
2022-12-29T06:06:24.940Z,0.85
2022-12-29T06:08:54.355Z,0.90
2022-12-29T06:11:23.308Z,0.88
2022-12-29T06:13:56.961Z,0.93
2022-12-29T06:16:26.416Z,0.88
2022-12-29T06:18:59.087Z,1.00
2022-12-29T06:21:27.502Z,0.90
2022-12-29T06:23:56.015Z,0.80
2022-12-29T06:26:24.347Z,0.90
2022-12-29T06:28:53.202Z,1.00
2022-12-29T06:31:23.280Z,1.00
2022-12-29T06:33:51.676Z,0.80
2022-12-29T06:36:20.069Z,1.20
2022-12-29T06:38:48.761Z,0.80
2022-12-29T06:41:17.083Z,0.98
2022-12-29T06:43:45.540Z,1.00
2022-12-29T06:46:24.334Z,0.90
2022-12-29T06:48:52.710Z,0.80
2022-12-29T06:51:21.125Z,0.70
2022-12-29T06:53:49.408Z,0.93
2022-12-29T06:56:17.749Z,0.90
2022-12-29T06:58:46.087Z,0.93
2022-12-29T07:01:14.387Z,0.88
2022-12-29T07:03:44.646Z,0.98
2022-12-29T07:06:13.009Z,0.85
2022-12-29T07:08:41.332Z,0.90
2022-12-29T07:11:09.756Z,0.82
2022-12-29T07:13:38.117Z,1.00
2022-12-29T07:16:10.209Z,0.88
2022-12-29T07:18:38.812Z,0.80
2022-12-29T07:21:08.597Z,1.00
2022-12-29T07:23:36.948Z,0.90
2022-12-29T07:26:07.681Z,0.90
2022-12-29T07:28:38.938Z,0.82
2022-12-29T07:31:07.995Z,0.80
2022-12-29T07:33:36.357Z,0.90
2022-12-29T07:36:05.013Z,1.10
2022-12-29T07:38:34.747Z,0.90
2022-12-29T07:41:03.018Z,1.00
2022-12-29T07:43:31.507Z,0.80
2022-12-29T07:46:54.112Z,0.93
2022-12-29T07:49:06.605Z,0.93
2022-12-29T07:51:35.031Z,0.90
2022-12-29T07:54:04.992Z,0.93
2022-12-29T07:56:33.318Z,1.10
2022-12-29T07:59:01.628Z,0.95
2022-12-29T08:01:30.237Z,1.00
2022-12-29T08:03:58.704Z,0.88
2022-12-29T08:06:35.318Z,1.00
2022-12-29T08:09:12.505Z,1.10
2022-12-29T08:11:44.984Z,1.10
2022-12-29T08:14:13.634Z,0.98
2022-12-29T08:16:42.162Z,0.80
2022-12-29T08:19:12.354Z,1.00
2022-12-29T08:21:40.920Z,1.05
2022-12-29T08:24:11.461Z,1.30
2022-12-29T08:26:39.804Z,1.13
2022-12-29T08:29:08.135Z,1.10
2022-12-29T08:31:36.912Z,0.90
2022-12-29T08:34:06.335Z,1.10
2022-12-29T08:36:34.684Z,0.90
2022-12-29T08:39:03.052Z,1.00
2022-12-29T08:41:32.838Z,1.17
2022-12-29T08:44:02.012Z,1.00
2022-12-29T08:46:30.325Z,1.38
2022-12-29T08:48:58.768Z,1.02
2022-12-29T08:51:27.080Z,0.90
2022-12-29T08:53:55.675Z,1.20
2022-12-29T08:56:24.696Z,1.30
2022-12-29T08:58:57.450Z,1.00
2022-12-29T09:01:26.562Z,1.20
2022-12-29T09:06:44.817Z,1.00
2022-12-29T09:09:13.791Z,1.02
2022-12-29T09:11:42.824Z,1.00
2022-12-29T09:14:12.946Z,1.00
2022-12-29T09:16:59.795Z,1.00
2022-12-29T09:19:28.175Z,1.13
2022-12-29T09:21:56.551Z,1.00
2022-12-29T09:24:24.835Z,1.10
2022-12-29T09:26:53.116Z,1.00
2022-12-29T09:29:22.855Z,1.30
2022-12-29T09:31:51.253Z,1.08
2022-12-29T09:34:19.632Z,1.13
2022-12-29T09:36:47.955Z,1.00
2022-12-29T09:39:16.248Z,1.30
2022-12-29T09:41:54.096Z,1.20
2022-12-29T09:44:31.435Z,1.60
2022-12-29T09:47:01.507Z,1.35
2022-12-29T09:49:35.076Z,1.10
2022-12-29T09:52:08.292Z,1.50
2022-12-29T09:54:44.755Z,1.38
2022-12-29T09:57:22.628Z,1.60
2022-12-29T09:59:58.369Z,1.38
2022-12-29T10:02:34.511Z,1.38
2022-12-29T10:05:03.009Z,1.30
2022-12-29T10:07:40.551Z,1.05
2022-12-29T10:10:24.808Z,0.93
2022-12-29T10:13:08.483Z,1.10
2022-12-29T10:16:03.727Z,1.17
2022-12-29T10:21:16.448Z,1.20
2022-12-29T10:23:47.879Z,1.33
2022-12-29T10:26:18.624Z,1.20
2022-12-29T10:28:51.405Z,1.20
2022-12-29T10:31:24.040Z,1.10
2022-12-29T10:33:58.313Z,1.20
2022-12-29T10:36:35.334Z,1.00
2022-12-29T10:39:08.992Z,1.38
2022-12-29T10:41:43.049Z,1.13
2022-12-29T10:44:18.316Z,1.10
2022-12-29T10:46:54.778Z,1.10
2022-12-29T10:49:24.053Z,1.30
2022-12-29T10:51:54.010Z,1.15
2022-12-29T10:54:28.837Z,1.20
2022-12-29T10:57:03.272Z,1.42
2022-12-29T10:59:33.556Z,1.33
2022-12-29T11:02:22.467Z,1.10
2022-12-29T11:04:57.191Z,1.15
2022-12-29T11:07:27.548Z,1.30
2022-12-29T11:09:56.465Z,1.35
2022-12-29T11:12:27.283Z,1.48
2022-12-29T11:15:04.901Z,1.23
2022-12-29T11:17:45.871Z,1.55
2022-12-29T11:20:32.561Z,1.00
2022-12-29T11:23:01.809Z,1.20
2022-12-29T11:25:30.325Z,1.45
2022-12-29T11:28:01.828Z,1.13
2022-12-29T11:30:32.010Z,1.50
2022-12-29T11:33:05.053Z,1.38
2022-12-29T11:35:37.784Z,1.30
2022-12-29T11:38:21.685Z,1.40
2022-12-29T11:40:50.712Z,1.35
2022-12-29T11:43:25.747Z,1.05
2022-12-29T11:45:57.489Z,1.30
2022-12-29T11:48:33.881Z,1.20
2022-12-29T11:51:02.374Z,1.17
2022-12-29T11:53:40.410Z,1.58
2022-12-29T11:56:12.750Z,1.60
2022-12-29T11:58:41.434Z,1.40
2022-12-29T12:01:16.866Z,1.30
2022-12-29T12:03:50.604Z,1.10
2022-12-29T12:06:25.081Z,1.67
2022-12-29T12:08:57.172Z,1.88
2022-12-29T12:11:34.172Z,1.42
2022-12-29T12:14:08.940Z,1.70
2022-12-29T12:17:01.868Z,1.50
2022-12-29T12:19:36.632Z,1.55
2022-12-29T12:22:15.280Z,1.75
2022-12-29T12:24:49.622Z,1.20
2022-12-29T12:27:23.900Z,1.20
2022-12-29T12:29:59.111Z,1.20
2022-12-29T12:32:38.866Z,1.45
2022-12-29T12:35:18.205Z,1.52
2022-12-29T12:38:05.438Z,1.13
2022-12-29T12:40:51.354Z,1.17
2022-12-29T12:43:36.844Z,1.30
2022-12-29T12:46:25.378Z,1.20
2022-12-29T12:49:23.285Z,1.60
2022-12-29T12:52:05.455Z,1.10
2022-12-29T12:54:48.224Z,1.48
2022-12-29T12:57:23.102Z,1.20
2022-12-29T12:59:59.388Z,1.08
2022-12-29T13:02:39.367Z,1.10
2022-12-29T13:05:26.881Z,1.23
2022-12-29T13:08:15.794Z,1.48
2022-12-29T13:10:53.506Z,1.35
2022-12-29T13:13:46.803Z,1.20
2022-12-29T13:16:22.069Z,1.23
2022-12-29T13:18:57.919Z,1.20
2022-12-29T13:21:41.177Z,1.10
2022-12-29T13:24:20.079Z,1.17
2022-12-29T13:26:53.096Z,1.15
2022-12-29T13:29:29.498Z,1.02
2022-12-29T13:32:24.068Z,1.52
2022-12-29T13:35:04.968Z,1.73
2022-12-29T13:37:38.047Z,1.23
2022-12-29T13:40:18.009Z,1.35
2022-12-29T13:42:48.274Z,1.13
2022-12-29T13:45:19.073Z,1.33
2022-12-29T13:47:53.562Z,1.25
2022-12-29T13:50:24.158Z,1.40
2022-12-29T13:53:03.473Z,1.60
2022-12-29T13:55:39.193Z,1.23
2022-12-29T13:58:15.618Z,1.30
2022-12-29T14:00:52.734Z,1.10
2022-12-29T14:03:46.401Z,1.27
2022-12-29T14:06:22.037Z,1.10
2022-12-29T14:08:51.782Z,1.30
2022-12-29T14:11:25.653Z,1.27
2022-12-29T14:13:54.492Z,1.10
2022-12-29T14:16:32.554Z,1.20
2022-12-29T14:19:13.834Z,1.00
2022-12-29T14:21:42.946Z,1.50
2022-12-29T14:24:46.515Z,1.38
2022-12-29T14:27:54.772Z,1.08
2022-12-29T14:30:48.706Z,0.95
2022-12-29T14:33:18.108Z,1.10
2022-12-29T14:35:53.022Z,0.95
2022-12-29T14:38:26.909Z,1.17
2022-12-29T14:41:33.064Z,1.20
2022-12-29T14:44:19.791Z,1.23
2022-12-29T14:46:57.373Z,1.10
2022-12-29T14:49:29.179Z,1.20
2022-12-29T14:52:08.410Z,1.00
2022-12-29T14:54:54.285Z,1.25
2022-12-29T14:57:42.762Z,1.33
2022-12-29T15:00:25.232Z,1.13
2022-12-29T15:03:04.565Z,1.00
2022-12-29T15:05:36.986Z,1.00
2022-12-29T15:08:06.223Z,1.25
2022-12-29T15:10:41.556Z,1.20
2022-12-29T15:13:18.236Z,1.40
2022-12-29T15:15:47.892Z,1.30
2022-12-29T15:18:23.818Z,1.30
2022-12-29T15:20:55.301Z,1.00
2022-12-29T15:23:23.909Z,1.20
2022-12-29T15:25:57.075Z,1.17
2022-12-29T15:28:26.951Z,1.00
2022-12-29T15:31:03.299Z,0.93
2022-12-29T15:33:31.884Z,1.10
2022-12-29T15:36:05.502Z,1.10
2022-12-29T15:38:40.192Z,1.48
2022-12-29T15:41:28.520Z,1.10
2022-12-29T15:44:07.673Z,1.00
2022-12-29T15:46:38.013Z,1.10
2022-12-29T15:49:08.832Z,1.27
2022-12-29T15:51:39.668Z,1.05
2022-12-29T15:54:09.220Z,1.38
2022-12-29T15:56:37.687Z,1.08
2022-12-29T15:59:05.952Z,1.20
2022-12-29T16:01:35.996Z,1.20
2022-12-29T16:04:09.512Z,1.17
2022-12-29T16:06:40.242Z,1.00
2022-12-29T16:09:16.483Z,1.15
2022-12-29T16:11:48.956Z,1.02
2022-12-29T16:14:21.020Z,1.10
2022-12-29T16:16:50.622Z,1.40
2022-12-29T16:19:26.562Z,1.13
2022-12-29T16:21:55.228Z,1.48
2022-12-29T16:24:27.630Z,1.17
2022-12-29T16:27:01.579Z,1.23
2022-12-29T16:29:32.204Z,1.20
2022-12-29T16:32:03.893Z,1.52
2022-12-29T16:34:43.789Z,1.20
2022-12-29T16:37:30.251Z,1.33
2022-12-29T16:40:18.890Z,1.35
2022-12-29T16:42:52.299Z,1.60
2022-12-29T16:46:08.583Z,1.33
2022-12-29T16:48:47.630Z,1.40
2022-12-29T16:51:19.941Z,1.50
2022-12-29T16:53:51.985Z,1.73
2022-12-29T16:56:23.204Z,1.45
2022-12-29T16:58:55.217Z,1.30
2022-12-29T17:01:23.932Z,1.30
2022-12-29T17:03:55.003Z,1.60
2022-12-29T17:06:25.077Z,1.42
2022-12-29T17:08:53.965Z,1.38
2022-12-29T17:11:50.170Z,1.60
2022-12-29T17:14:31.182Z,1.25
2022-12-29T17:17:00.967Z,1.45
2022-12-29T17:19:32.251Z,1.40
2022-12-29T17:22:02.693Z,1.55
2022-12-29T17:24:31.403Z,1.70
2022-12-29T17:27:01.588Z,1.63
2022-12-29T17:29:34.785Z,1.58
2022-12-29T17:32:05.353Z,1.30
2022-12-29T17:34:34.029Z,1.50
2022-12-29T17:37:04.197Z,1.50
2022-12-29T17:39:32.518Z,1.70
2022-12-29T17:42:00.899Z,1.52
2022-12-29T17:44:29.263Z,1.40
2022-12-29T17:46:57.569Z,1.70
2022-12-29T17:49:25.909Z,1.50
2022-12-29T17:51:54.507Z,1.60
2022-12-29T17:54:26.370Z,1.50
2022-12-29T17:56:54.773Z,1.23
2022-12-29T17:59:23.146Z,1.38
2022-12-29T18:01:51.647Z,1.10
2022-12-29T18:04:22.546Z,1.38
2022-12-29T18:06:50.870Z,1.23
2022-12-29T18:09:19.214Z,1.10
2022-12-29T18:11:49.004Z,1.00
2022-12-29T18:14:18.053Z,0.90
2022-12-29T18:16:46.344Z,1.10
2022-12-29T18:19:14.654Z,1.00
2022-12-29T18:21:44.624Z,1.33
2022-12-29T18:24:15.630Z,1.00
2022-12-29T18:26:43.911Z,1.20
2022-12-29T18:29:13.605Z,1.25
2022-12-29T18:31:42.012Z,1.20
2022-12-29T18:34:15.300Z,1.30
2022-12-29T18:36:43.746Z,1.30
2022-12-29T18:39:12.514Z,1.40
2022-12-29T18:41:40.903Z,1.77
2022-12-29T18:44:14.552Z,1.90
2022-12-29T18:46:42.953Z,1.60
2022-12-29T18:49:11.401Z,1.98
2022-12-29T18:51:39.768Z,1.73
2022-12-29T18:54:14.749Z,1.65
2022-12-29T18:56:43.027Z,1.85
2022-12-29T18:59:11.782Z,1.70
2022-12-29T19:01:41.778Z,2.03
2022-12-29T19:04:13.345Z,1.88
2022-12-29T19:06:41.772Z,1.90
2022-12-29T19:09:10.743Z,2.22
2022-12-29T19:11:39.047Z,2.00
2022-12-29T19:14:07.326Z,2.10
2022-12-29T19:16:35.818Z,1.75
2022-12-29T19:19:09.843Z,1.90
2022-12-29T19:21:38.739Z,2.10
2022-12-29T19:24:07.678Z,1.60
2022-12-29T19:26:37.924Z,1.85
2022-12-29T19:29:08.172Z,1.50
2022-12-29T19:31:38.745Z,1.65
2022-12-29T19:34:08.967Z,1.85
2022-12-29T19:36:37.349Z,1.52
2022-12-29T19:39:05.946Z,1.52
2022-12-29T19:41:34.482Z,1.85
2022-12-29T19:44:03.008Z,1.67
2022-12-29T19:46:31.423Z,1.70
2022-12-29T19:49:01.035Z,1.52
2022-12-29T19:51:30.743Z,1.65
2022-12-29T19:53:59.407Z,1.70
2022-12-29T19:56:27.898Z,3.20
2022-12-29T19:58:57.611Z,2.08
2022-12-29T20:01:26.413Z,1.73
2022-12-29T20:03:54.925Z,1.50
2022-12-29T20:06:23.372Z,1.70
2022-12-29T20:08:53.078Z,1.58
2022-12-29T20:11:21.468Z,1.50
2022-12-29T20:13:49.806Z,1.80
2022-12-29T20:16:20.213Z,1.58
2022-12-29T20:18:49.493Z,1.75
2022-12-29T20:21:20.165Z,2.20
2022-12-29T20:23:49.014Z,1.90
2022-12-29T20:26:20.973Z,2.30
2022-12-29T20:28:49.910Z,2.15
2022-12-29T20:31:20.797Z,1.80
2022-12-29T20:33:49.690Z,2.00
2022-12-29T20:36:21.909Z,2.00
2022-12-29T20:38:51.957Z,1.70
2022-12-29T20:41:22.739Z,2.10
2022-12-29T20:43:53.108Z,2.97
2022-12-29T20:46:26.415Z,2.65
2022-12-29T20:48:59.557Z,1.92
2022-12-29T20:51:28.536Z,1.75
2022-12-29T20:53:57.471Z,1.92
2022-12-29T20:56:30.208Z,2.03
2022-12-29T20:59:28.867Z,2.30
2022-12-29T21:01:47.217Z,2.10
2022-12-29T21:04:15.671Z,2.10
2022-12-29T21:06:43.981Z,2.20
2022-12-29T21:09:12.329Z,1.83
2022-12-29T21:11:42.040Z,1.75
2022-12-29T21:14:10.534Z,1.60
2022-12-29T21:16:38.988Z,2.15
2022-12-29T21:19:07.367Z,1.75
2022-12-29T21:21:35.822Z,1.98
2022-12-29T21:24:06.213Z,2.00
2022-12-29T21:26:34.953Z,1.75
2022-12-29T21:29:05.064Z,2.10
2022-12-29T21:31:34.938Z,2.05
2022-12-29T21:34:04.502Z,1.70
2022-12-29T21:36:33.940Z,1.88
2022-12-29T21:39:03.306Z,2.33
2022-12-29T21:41:32.173Z,2.00
2022-12-29T21:44:18.902Z,2.10
2022-12-29T21:46:48.722Z,1.90
2022-12-29T21:49:17.318Z,2.33
2022-12-29T21:51:51.393Z,2.25
2022-12-29T21:54:38.458Z,1.90
2022-12-29T21:57:07.625Z,1.95
2022-12-29T21:59:53.586Z,2.00
2022-12-29T22:02:43.356Z,1.83
2022-12-29T22:05:31.711Z,2.28
2022-12-29T22:08:17.649Z,2.17
2022-12-29T22:11:05.849Z,1.70
2022-12-29T22:13:35.430Z,1.95
2022-12-29T22:16:04.986Z,1.80
2022-12-29T22:18:35.128Z,1.85
2022-12-29T22:21:05.474Z,1.90
2022-12-29T22:23:33.845Z,2.30
2022-12-29T22:26:05.043Z,1.70
2022-12-29T22:28:35.621Z,1.98
2022-12-29T22:31:03.907Z,2.03
2022-12-29T22:33:32.351Z,2.40
2022-12-29T22:36:02.010Z,1.85
2022-12-29T22:38:30.317Z,1.90
2022-12-29T22:41:00.464Z,1.77
2022-12-29T22:43:29.915Z,1.77
2022-12-29T22:46:03.271Z,1.50
2022-12-29T22:48:33.065Z,1.90
2022-12-29T22:51:03.681Z,2.10
2022-12-29T22:53:32.099Z,2.58
2022-12-29T22:56:05.593Z,1.70
2022-12-29T22:58:34.107Z,2.10
2022-12-29T23:01:02.637Z,1.50
2022-12-29T23:03:30.975Z,1.95
2022-12-29T23:06:02.989Z,1.40
2022-12-29T23:08:35.393Z,2.03
2022-12-29T23:11:05.478Z,2.17
2022-12-29T23:13:33.876Z,1.95
2022-12-29T23:16:02.548Z,1.50
2022-12-29T23:18:31.299Z,1.60
2022-12-29T23:20:59.906Z,1.48
2022-12-29T23:23:49.315Z,2.22
2022-12-29T23:26:20.607Z,2.10
2022-12-29T23:28:51.524Z,1.85
2022-12-29T23:31:25.174Z,1.50
2022-12-29T23:33:55.425Z,1.58
2022-12-29T23:36:24.542Z,1.73
2022-12-29T23:38:52.987Z,1.58
2022-12-29T23:41:25.371Z,1.70
2022-12-29T23:43:53.875Z,1.70
2022-12-29T23:46:23.774Z,1.83
2022-12-29T23:48:52.516Z,1.67
2022-12-29T23:51:20.944Z,1.70
2022-12-29T23:53:49.596Z,1.40
2022-12-29T23:56:20.493Z,1.75
2022-12-29T23:58:50.831Z,1.83
